Latest Weather Observations for Warburton

IDD60801

Issued at 8:04 am CST Wednesday 28 January 2015 (issued every 30 minutes, with the page automatically refreshed every 10 minutes)

About weather observations | Map of weather stations | Latest weather observations for NT | Other Formats
Station Details ID: 013011 Name: WARBURTON AIRFIELD Lat: -26.13 Lon: 126.58 Height: 459.0 m
Data from the previous 72 hours. | See also: Recent months at Warburton
Date/Time
CST
Temp
°C
App
Temp
°C
Dew
Point
Rel
Hum
%
Delta-T
°C
Wind Press
QNH
hPa
Press
MSL
hPa
Rain
since 9 am
mm
Dir
 
Spd
km/h
Gust
km/h
Spd
kts
Gust
kts
28/08:00am 25.9 23.1 8.4 33 9.6 SE 13 15 7 8 1011.9 - 15.4
28/07:30am 24.9 23.2 10.0 39 8.4 SSE 9 13 5 7 1011.4 1007.8 15.4
28/07:00am 23.6 23.2 14.0 55 5.7 SE 9 11 5 6 1011.0 - 15.4
28/06:30am 22.8 25.7 20.7 88 1.4 SSE 6 9 3 5 1010.6 - 15.4
28/06:00am 23.2 27.1 22.9 98 0.2 S 7 9 4 5 1010.2 - 15.4
28/05:30am 23.7 28.9 22.9 95 0.5 CALM 0 0 0 0 1010.1 - 15.4
28/05:00am 23.9 28.6 22.0 89 1.3 CALM 0 0 0 0 1010.3 - 15.4
28/04:30am 23.9 27.2 21.4 86 1.7 E 6 7 3 4 1010.0 1006.3 15.4
28/04:00am 24.2 27.3 21.1 83 2.1 ENE 6 7 3 4 1010.1 - 15.4
28/03:30am 24.5 27.0 20.2 77 2.8 E 7 7 4 4 1009.8 - 15.4
28/03:00am 24.7 27.3 20.0 75 3.1 NE 6 7 3 4 1010.2 - 15.4
28/02:30am 25.3 27.4 19.4 70 3.9 NE 7 9 4 5 1010.4 - 15.4
28/02:00am 25.0 27.6 20.0 74 3.3 E 6 7 3 4 1010.4 - 15.4
28/01:30am 25.7 27.8 19.3 67 4.2 NNE 7 9 4 5 1010.6 1006.9 15.4
28/01:00am 26.4 27.6 19.8 67 4.4 N 13 15 7 8 1010.9 - 15.4
28/12:30am 26.5 28.8 21.3 73 3.5 N 11 17 6 9 1011.1 - 15.4
28/12:00am 26.9 30.5 21.2 71 3.8 S 4 9 2 5 1011.0 - 15.4
 
Date/Time
CST
Temp
°C
App
Temp
°C
Dew
Point
Rel
Hum
%
Delta-T
°C
Wind Press
QNH
hPa
Press
MSL
hPa
Rain
since 9 am
mm
Dir
 
Spd
km/h
Gust
km/h
Spd
kts
Gust
kts
27/11:30pm 27.0 30.7 19.9 65 4.7 CALM 0 6 0 3 1010.6 - 15.4
27/11:00pm 26.9 29.2 20.7 69 4.2 S 9 11 5 6 1010.2 - 15.4
27/10:30pm 27.2 30.8 20.5 67 4.5 NE 2 6 1 3 1010.1 1006.4 15.4
27/10:00pm 27.6 29.6 19.1 59 5.6 NNE 7 9 4 5 1009.6 - 15.4
27/09:30pm 28.2 29.6 18.6 56 6.3 NE 9 15 5 8 1009.3 - 15.4
27/09:00pm 27.8 31.3 21.8 70 4.1 N 6 7 3 4 1009.1 - 15.4
27/08:30pm 28.7 30.5 18.8 55 6.5 NE 7 9 4 5 1008.9 - 15.4
27/08:00pm 30.0 29.8 16.8 45 8.5 ENE 13 17 7 9 1008.5 - 15.4
27/07:30pm 30.9 30.2 15.3 38 9.8 ENE 13 19 7 10 1008.4 1004.7 15.4
27/07:00pm 31.7 32.4 16.0 38 10.0 ESE 7 15 4 8 1008.3 - 15.4
27/06:30pm 31.3 31.7 15.3 38 10.1 SE 7 15 4 8 1008.2 - 15.4
27/06:00pm 31.6 31.1 16.0 39 9.9 SSW 13 19 7 10 1008.0 - 15.4
27/05:30pm 31.1 29.7 15.5 39 9.8 SSW 17 20 9 11 1007.9 - 15.2
27/05:00pm 29.4 28.6 18.5 52 7.1 S 20 26 11 14 1008.1 - 15.2
27/04:30pm 26.9 26.0 19.0 62 5.2 SSW 22 28 12 15 1008.4 1004.7 15.2
27/04:00pm 24.7 27.6 20.6 78 2.7 NNW 6 13 3 7 1009.3 - 14.8
27/03:33pm 25.2 24.0 24.0 93 0.8 N 37 57 20 31 1010.1 - 7.4
27/03:32pm 24.7 22.5 22.9 90 1.2 N 39 48 21 26 1009.8 - 6.2
27/03:30pm 26.4 24.5 19.3 65 4.7 NW 28 46 15 25 1009.2 - 4.6
27/03:29pm 26.0 23.9 18.9 65 4.6 NW 28 46 15 25 1009.0 - 4.4
27/03:25pm 28.7 27.7 18.8 55 6.5 NNW 22 30 12 16 1008.7 - 1.2
27/03:00pm 34.2 32.7 14.1 29 12.5 E 15 20 8 11 1008.3 - 0.0
27/02:30pm 34.2 33.2 14.7 31 12.3 E 13 20 7 11 1008.8 - 0.0
27/02:00pm 34.2 33.4 15.1 31 12.1 NNE 13 20 7 11 1009.3 - 0.0
27/01:30pm 33.9 33.4 14.9 32 12.0 ENE 11 17 6 9 1010.1 1006.4 0.0
27/01:00pm 34.2 33.6 15.6 32 11.9 NNE 13 30 7 16 1010.6 - 0.0
27/12:30pm 33.7 32.0 14.7 32 11.9 NE 17 32 9 17 1010.9 - 0.0
27/12:00pm 32.9 30.2 13.5 30 11.9 NE 20 33 11 18 1011.4 - 0.0
27/11:30am 31.9 28.6 12.7 31 11.6 ENE 22 30 12 16 1011.8 - 0.0
27/11:00am 31.9 28.1 11.1 28 12.3 E 22 35 12 19 1012.1 - 0.0
27/10:30am 30.6 26.2 8.9 26 12.3 ENE 22 32 12 17 1012.6 1008.9 0.4
27/10:00am 30.9 26.5 7.4 23 13.1 ENE 20 32 11 17 1012.7 - 0.4
27/09:30am 29.6 24.6 6.3 23 12.6 E 22 33 12 18 1012.8 - 0.4
27/09:00am 28.3 22.9 6.4 25 11.8 E 24 35 13 19 1013.0 - 0.4
27/08:30am 26.9 20.0 6.3 27 11.0 E 32 41 17 22 1012.7 - 0.4
27/08:00am 26.0 19.9 6.6 29 10.4 E 28 39 15 21 1012.5 - 0.4
27/07:30am 24.7 19.3 8.2 35 9.0 ESE 26 37 14 20 1012.5 1008.8 0.4
27/07:00am 24.5 19.4 9.3 38 8.4 E 26 39 14 21 1012.0 - 0.4
27/06:30am 24.4 20.0 10.3 41 8.0 ESE 24 32 13 17 1011.8 - 0.4
27/06:00am 23.9 21.0 10.9 44 7.4 ESE 17 22 9 12 1011.6 - 0.4
27/05:30am 23.6 21.5 11.0 45 7.2 ESE 13 20 7 11 1011.4 - 0.4
27/05:00am 23.9 21.3 10.6 43 7.5 SE 15 20 8 11 1011.2 - 0.4
27/04:30am 24.4 22.2 10.7 42 7.8 SE 13 20 7 11 1011.0 1007.3 0.4
27/04:00am 24.8 23.0 10.7 41 8.0 SE 11 19 6 10 1011.0 - 0.4
27/03:30am 24.9 23.0 10.4 40 8.2 SE 11 15 6 8 1011.2 - 0.4
27/03:00am 25.5 22.8 10.5 39 8.5 ESE 15 19 8 10 1011.2 - 0.4
27/02:30am 25.8 23.5 10.4 38 8.8 ENE 13 19 7 10 1011.1 - 0.4
27/02:00am 25.9 22.5 10.5 38 8.8 E 19 28 10 15 1011.2 - 0.4
27/01:30am 25.6 22.5 10.2 38 8.7 ENE 17 24 9 13 1011.5 1007.9 0.4
27/01:00am 25.7 22.6 10.3 38 8.7 E 17 26 9 14 1011.7 - 0.4
27/12:30am 25.6 22.1 10.2 38 8.7 E 19 24 10 13 1012.0 - 0.4
27/12:00am 25.5 21.7 9.7 37 8.9 E 20 28 11 15 1011.9 - 0.4
 
Date/Time
CST
Temp
°C
App
Temp
°C
Dew
Point
Rel
Hum
%
Delta-T
°C
Wind Press
QNH
hPa
Press
MSL
hPa
Rain
since 9 am
mm
Dir
 
Spd
km/h
Gust
km/h
Spd
kts
Gust
kts
26/11:30pm 25.3 22.0 9.6 37 8.8 ESE 17 22 9 12 1012.3 - 0.4
26/11:00pm 25.4 21.7 9.3 36 9.0 ESE 19 28 10 15 1012.4 - 0.4
26/10:30pm 25.8 22.0 9.2 35 9.3 SE 19 28 10 15 1012.4 1008.7 0.4
26/10:00pm 26.0 21.3 9.4 35 9.3 ESE 24 33 13 18 1012.1 - 0.4
26/09:30pm 25.9 20.9 9.7 36 9.1 SE 26 37 14 20 1012.0 - 0.4
26/09:00pm 26.1 21.4 9.4 35 9.4 SE 24 32 13 17 1012.0 - 0.4
26/08:30pm 26.6 22.2 10.3 36 9.3 SE 24 33 13 18 1011.8 - 0.4
26/08:00pm 27.1 23.2 10.7 35 9.4 SE 22 30 12 16 1011.9 - 0.4
26/07:30pm 27.3 23.0 10.9 36 9.5 SE 24 30 13 16 1011.6 1008.0 0.4
26/07:00pm 27.6 23.3 10.8 35 9.7 SE 24 32 13 17 1011.1 - 0.4
26/06:30pm 28.0 23.9 10.2 33 10.2 SE 22 32 12 17 1010.9 - 0.4
26/06:00pm 28.9 24.3 11.0 33 10.4 SE 26 33 14 18 1010.9 - 0.4
26/05:30pm 28.6 24.8 11.2 34 10.2 SSE 22 30 12 16 1011.1 - 0.4
26/05:00pm 29.1 24.7 10.3 31 10.8 SSE 24 30 13 16 1011.3 - 0.4
26/04:30pm 29.3 24.5 10.4 31 10.9 SE 26 33 14 18 1011.6 1008.0 0.4
26/04:00pm 29.2 24.5 10.8 32 10.7 SE 26 35 14 19 1012.0 - 0.4
26/03:30pm 28.2 23.4 10.4 33 10.2 SE 26 35 14 19 1012.7 - 0.4
26/03:00pm 26.3 22.6 11.6 40 8.6 SE 22 32 12 17 1013.1 - 0.2
26/02:30pm 24.1 20.7 12.4 48 6.8 ESE 22 30 12 16 1013.4 - 0.2
26/02:00pm 24.8 21.3 10.3 40 8.2 ESE 19 28 10 15 1013.8 - 0.2
26/01:30pm 24.8 21.2 10.7 41 8.0 SE 20 28 11 15 1013.8 1010.2 0.2
26/01:00pm 24.2 21.4 12.5 48 6.8 ESE 19 24 10 13 1014.4 - 0.2
26/12:30pm 24.0 20.6 11.3 45 7.3 ESE 20 26 11 14 1015.1 - 0.0
26/12:00pm 24.9 20.6 9.2 37 8.7 ESE 22 32 12 17 1015.5 - 0.0
26/11:30am 24.6 19.7 10.1 40 8.2 SE 26 35 14 19 1015.4 - 0.0
26/11:00am 24.5 19.5 10.8 42 7.8 ESE 28 37 15 20 1015.3 - 0.0
26/10:30am 21.2 16.8 12.9 59 4.8 ESE 28 35 15 19 1015.1 1011.5 0.6
26/10:00am 22.3 17.8 11.4 50 6.2 ESE 26 37 14 20 1015.3 - 0.4
26/09:30am 21.6 17.0 12.2 55 5.4 SE 28 37 15 20 1015.0 - 0.4
26/09:00am 21.7 16.3 10.8 50 6.1 SE 30 41 16 22 1015.2 - 0.2
26/08:30am 25.2 19.7 5.9 29 10.1 SSE 24 35 13 19 1015.1 - 0.0
26/08:00am 25.6 18.8 5.2 27 10.6 SE 30 37 16 20 1014.1 - 0.0
26/07:30am 25.7 18.4 5.3 27 10.6 SE 33 43 18 23 1013.8 1010.2 0.0
26/07:00am 25.4 19.1 5.6 28 10.3 SE 28 37 15 20 1013.6 - 0.0
26/06:30am 25.5 20.2 5.1 27 10.6 SSE 22 32 12 17 1013.3 - 0.0
26/06:00am 25.4 19.7 5.1 27 10.5 SE 24 32 13 17 1012.4 - 0.0
26/05:30am 25.4 20.1 5.1 27 10.5 ESE 22 33 12 18 1011.8 - 0.0
26/05:00am 25.5 20.8 5.1 27 10.6 ESE 19 26 10 14 1011.9 - 0.0
26/04:30am 25.9 21.1 4.9 26 10.9 ESE 19 30 10 16 1012.1 1008.5 0.0
26/04:00am 26.3 21.4 5.3 26 11.0 ESE 20 26 11 14 1012.1 - 0.0
26/03:30am 26.4 21.8 5.4 26 11.0 ESE 19 28 10 15 1012.1 - 0.0
26/03:00am 26.8 22.0 5.7 26 11.1 ESE 20 30 11 16 1011.8 - 0.0
26/02:30am 27.1 21.9 5.4 25 11.4 ESE 22 35 12 19 1011.4 - 0.0
26/02:00am 27.4 21.8 5.6 25 11.5 ESE 24 37 13 20 1011.6 - 0.0
26/01:30am 27.7 22.1 5.3 24 11.8 ESE 24 35 13 19 1011.6 1008.0 0.0
26/01:00am 27.8 23.0 5.4 24 11.8 ESE 20 26 11 14 1011.6 - 0.0
26/12:30am 28.3 23.4 5.2 23 12.2 SE 20 30 11 16 1012.1 - 0.0
26/12:00am 28.6 24.0 5.5 23 12.3 SE 19 24 10 13 1012.3 - 0.0
 
Date/Time
CST
Temp
°C
App
Temp
°C
Dew
Point
Rel
Hum
%
Delta-T
°C
Wind Press
QNH
hPa
Press
MSL
hPa
Rain
since 9 am
mm
Dir
 
Spd
km/h
Gust
km/h
Spd
kts
Gust
kts
25/11:30pm 28.8 24.7 6.2 24 12.2 SE 17 22 9 12 1012.6 - 0.0
25/11:00pm 29.0 24.9 6.4 24 12.2 SSE 17 20 9 11 1012.1 - 0.0
25/10:30pm 29.4 25.7 6.1 23 12.6 SE 15 20 8 11 1012.1 1008.5 0.0
25/10:00pm 29.9 25.9 6.5 23 12.7 SE 17 20 9 11 1011.8 - 0.0
25/09:30pm 30.3 26.4 6.9 23 12.9 SE 17 24 9 13 1011.7 - 0.0
25/09:00pm 30.8 26.0 7.3 23 13.0 SE 22 30 12 16 1011.9 - 0.0
25/08:30pm 31.2 27.2 8.2 24 13.0 SE 19 28 10 15 1011.5 - 0.0
25/08:00pm 31.6 27.1 8.6 24 13.1 SE 22 32 12 17 1011.1 - 0.0
25/07:30pm 32.5 27.7 8.7 23 13.6 ESE 24 33 13 18 1010.8 1007.1 0.0
25/07:00pm 33.0 29.2 9.7 24 13.6 ESE 20 26 11 14 1010.9 - 0.0
25/06:30pm 32.5 28.7 9.9 25 13.2 ESE 20 30 11 16 1011.0 - 0.0
25/06:00pm 32.8 29.0 8.9 23 13.7 ESE 19 30 10 16 1011.2 - 0.0
25/05:30pm 32.7 28.8 9.5 24 13.4 ESE 20 30 11 16 1011.3 - 0.0
25/05:00pm 32.4 28.2 9.9 25 13.1 ESE 22 32 12 17 1011.7 - 0.0
25/04:30pm 32.6 28.5 10.0 25 13.2 SE 22 30 12 16 1011.9 1008.3 0.0
25/04:00pm 32.4 28.2 9.9 25 13.1 ESE 22 32 12 17 1012.1 - 0.0
25/03:30pm 31.9 27.4 10.0 26 12.7 ESE 24 33 13 18 1012.5 - 0.0
25/03:00pm 31.6 27.2 10.3 27 12.4 SE 24 32 13 17 1012.7 - 0.0
25/02:30pm 31.2 26.7 10.0 27 12.3 ESE 24 33 13 18 1012.7 - 0.0
25/02:00pm 30.1 26.0 10.1 29 11.6 E 22 30 12 16 1013.2 - 0.0
25/01:30pm 28.2 24.0 9.9 32 10.5 ESE 22 30 12 16 1013.4 1009.8 0.0
25/01:00pm 27.2 23.6 10.0 34 9.8 E 19 26 10 14 1013.8 - 0.0
25/12:30pm 27.0 23.3 10.2 35 9.6 E 20 30 11 16 1013.8 - 0.0
25/12:00pm 27.0 22.9 10.2 35 9.6 E 22 28 12 15 1013.9 - 0.0
25/11:30am 26.4 22.0 10.5 37 9.1 E 24 30 13 16 1014.1 - 0.0
25/11:00am 26.1 21.7 10.3 37 9.0 E 24 33 13 18 1014.0 - 0.0
25/10:30am 25.1 20.6 10.2 39 8.4 E 24 39 13 21 1014.4 1010.8 0.0
25/10:00am 23.6 19.4 9.9 42 7.6 E 22 35 12 19 1014.9 - 0.0

Other Formats:

Comma delimited format used in spreadsheet applications
http://www.bom.gov.au/fwo/IDD60801/IDD60801.94457.axf

JavaScript Object Notation format (JSON) in row-major order
http://www.bom.gov.au/fwo/IDD60801/IDD60801.94457.json